Time;durP1;ratioP1;P1;durP2;ratioP2;P2;SDS_P1;SDS_P2;PMS_P1;PMS_P2;Temp;Humidity;BMP_temperature;BMP_pressure;BME280_temperature;BME280_humidity;BME280_pressure;Samples;Min_cycle;Max_cycle;Signal;HPM_P1;HPM_P2
2024/01/10 00:01:42;;;;;;;96.27;45.57;;;-0.70;40.00;;;;;;4988218;28;20631;-88
2024/01/10 00:04:07;;;;;;;88.67;45.47;;;-0.80;40.00;;;;;;4996539;28;20191;-88
2024/01/10 00:06:33;;;;;;;98.23;47.13;;;-0.80;40.00;;;;;;4994965;28;20590;-89
2024/01/10 00:08:59;;;;;;;88.33;44.77;;;-0.70;40.10;;;;;;4985940;28;20192;-88
2024/01/10 00:11:24;;;;;;;89.07;44.47;;;-0.80;39.90;;;;;;4995943;28;20183;-88
2024/01/10 00:13:50;;;;;;;90.17;45.60;;;-0.90;39.90;;;;;;4996620;28;20211;-88
2024/01/10 00:16:15;;;;;;;95.93;44.67;;;-0.90;40.00;;;;;;5013612;28;20273;-88
2024/01/10 00:18:41;;;;;;;93.97;46.67;;;-0.90;40.20;;;;;;4995597;28;20218;-88
2024/01/10 00:21:07;;;;;;;90.17;45.00;;;-0.90;40.20;;;;;;5013283;28;20191;-88
2024/01/10 00:23:33;;;;;;;95.50;46.77;;;-0.90;40.10;;;;;;4993871;28;20243;-88
2024/01/10 00:25:59;;;;;;;89.23;44.50;;;-0.90;40.20;;;;;;4995708;28;20203;-87
2024/01/10 00:28:25;;;;;;;88.33;44.27;;;-0.90;40.20;;;;;;4996382;28;20232;-87
2024/01/10 00:30:51;;;;;;;84.60;43.37;;;-0.90;40.10;;;;;;4991408;28;20236;-87
2024/01/10 00:33:17;;;;;;;94.40;46.17;;;-0.90;40.20;;;;;;5013244;28;20641;-88
2024/01/10 00:35:42;;;;;;;87.60;43.90;;;-0.90;40.10;;;;;;5012918;28;20191;-89
2024/01/10 00:38:08;;;;;;;85.57;40.97;;;-0.90;40.30;;;;;;4994954;28;20183;-87
2024/01/10 00:40:34;;;;;;;94.97;43.03;;;-0.90;40.30;;;;;;4997209;28;20616;-88
2024/01/10 00:43:00;;;;;;;82.30;42.50;;;-0.80;40.30;;;;;;4997196;28;20194;-89
2024/01/10 00:45:26;;;;;;;87.13;42.00;;;-0.80;40.30;;;;;;4995084;28;20226;-89
2024/01/10 00:47:51;;;;;;;82.63;42.63;;;-0.70;40.30;;;;;;4997176;28;20194;-88
2024/01/10 00:50:17;;;;;;;81.30;41.63;;;-0.70;40.30;;;;;;5009103;28;20563;-88
2024/01/10 00:52:45;;;;;;;78.43;41.40;;;-0.60;40.40;;;;;;5004068;28;20624;-87
2024/01/10 00:55:10;;;;;;;87.67;43.80;;;-0.60;40.30;;;;;;4998612;28;20186;-89
2024/01/10 00:57:38;;;;;;;95.23;46.50;;;-0.60;40.10;;;;;;5013116;28;20195;-87
2024/01/10 01:00:05;;;;;;;89.50;43.27;;;-0.60;40.00;;;;;;4997919;28;20263;-88
2024/01/10 01:02:31;;;;;;;92.83;45.47;;;-0.70;39.80;;;;;;4993824;28;20179;-88
2024/01/10 01:04:56;;;;;;;86.47;44.80;;;-0.80;39.80;;;;;;5009108;28;20207;-88
2024/01/10 01:07:22;;;;;;;92.60;45.23;;;-0.80;40.00;;;;;;5021375;28;20236;-88
2024/01/10 01:09:47;;;;;;;86.00;44.17;;;-0.80;40.10;;;;;;5019659;28;20211;-88
2024/01/10 01:12:13;;;;;;;95.87;44.57;;;-0.70;40.30;;;;;;5023934;28;20186;-87
2024/01/10 01:14:39;;;;;;;94.10;45.97;;;-0.70;40.20;;;;;;4987819;28;20718;-88
2024/01/10 01:17:04;;;;;;;97.17;46.97;;;-0.60;40.10;;;;;;4999280;28;20187;-89
2024/01/10 01:19:30;;;;;;;94.13;47.33;;;-0.80;40.00;;;;;;5005610;28;20183;-88
2024/01/10 01:21:55;;;;;;;100.83;47.20;;;-0.80;40.00;;;;;;5015931;28;20198;-87
2024/01/10 01:24:21;;;;;;;90.90;45.43;;;-0.80;40.10;;;;;;5010067;28;20186;-88
2024/01/10 01:26:47;;;;;;;94.47;44.03;;;-0.70;40.20;;;;;;5018097;28;20222;-87
2024/01/10 01:29:12;;;;;;;89.57;45.17;;;-0.70;40.20;;;;;;4997650;28;20182;-87
2024/01/10 01:31:38;;;;;;;83.60;44.33;;;-0.80;40.00;;;;;;4998268;28;20175;-88
2024/01/10 01:34:03;;;;;;;92.20;45.90;;;-0.80;39.90;;;;;;5003195;28;20201;-89
2024/01/10 01:36:29;;;;;;;90.20;46.07;;;-0.80;40.00;;;;;;4988859;28;20179;-89
2024/01/10 01:38:55;;;;;;;86.33;44.40;;;-0.90;40.00;;;;;;5004401;28;20632;-88
2024/01/10 01:41:20;;;;;;;85.53;43.80;;;-0.90;40.00;;;;;;5024659;28;20201;-90
2024/01/10 01:43:46;;;;;;;83.17;41.63;;;-1.00;39.90;;;;;;5011895;28;20187;-88
2024/01/10 01:46:12;;;;;;;85.43;43.60;;;-1.00;39.90;;;;;;4993960;28;20211;-89
2024/01/10 01:48:38;;;;;;;88.40;41.93;;;-1.00;39.90;;;;;;4991622;28;20548;-90
2024/01/10 01:51:08;;;;;;;90.90;44.40;;;-1.10;39.80;;;;;;5009964;28;20183;-89
2024/01/10 01:53:35;;;;;;;92.80;45.30;;;-1.20;39.90;;;;;;4995541;28;20252;-89
2024/01/10 01:56:05;;;;;;;86.87;44.00;;;-1.20;40.00;;;;;;4995403;28;20187;-87
2024/01/10 01:58:31;;;;;;;88.67;44.13;;;-1.30;39.90;;;;;;5010796;28;20237;-88
2024/01/10 02:04:19;;;;;;;88.83;43.70;;;-1.10;40.40;;;;;;5011181;28;20206;-88
2024/01/10 02:06:45;;;;;;;88.83;43.80;;;-0.90;40.50;;;;;;4992468;28;20217;-87
2024/01/10 02:09:11;;;;;;;91.77;44.93;;;-1.00;40.30;;;;;;4995645;28;20179;-89
2024/01/10 02:11:36;;;;;;;90.27;43.37;;;-1.00;40.10;;;;;;5003024;28;20188;-89
2024/01/10 02:14:02;;;;;;;89.83;44.03;;;-1.10;40.00;;;;;;5013279;28;20324;-89
2024/01/10 02:16:28;;;;;;;85.93;42.43;;;-1.20;39.80;;;;;;4996713;28;20289;-90
2024/01/10 02:18:53;;;;;;;83.37;44.13;;;-1.30;39.90;;;;;;4997758;28;20179;-89
2024/01/10 02:21:23;;;;;;;93.13;45.77;;;-1.30;40.10;;;;;;4998433;28;20199;-88
2024/01/10 02:23:48;;;;;;;87.03;42.47;;;-1.20;40.30;;;;;;5009494;28;20183;-89
2024/01/10 02:26:17;;;;;;;87.43;44.13;;;-1.20;40.20;;;;;;5001943;28;20594;-89
2024/01/10 02:28:43;;;;;;;89.57;44.80;;;-1.20;40.30;;;;;;4998210;28;20267;-88
2024/01/10 02:31:08;;;;;;;93.57;47.13;;;-1.10;40.30;;;;;;4999140;28;20274;-89
2024/01/10 02:33:34;;;;;;;89.73;45.27;;;-1.20;40.00;;;;;;4998475;28;20217;-89
2024/01/10 02:36:00;;;;;;;88.10;45.07;;;-1.20;40.00;;;;;;5015340;28;20175;-88
2024/01/10 02:38:26;;;;;;;88.57;44.50;;;-1.20;40.20;;;;;;4997957;28;20629;-90
2024/01/10 02:40:52;;;;;;;91.90;45.20;;;-1.20;40.20;;;;;;4999530;28;20217;-89
2024/01/10 02:43:18;;;;;;;84.80;44.67;;;-1.10;40.30;;;;;;5010032;28;20176;-88
2024/01/10 02:45:43;;;;;;;90.30;44.40;;;-1.10;40.40;;;;;;5015729;28;20364;-90
2024/01/10 02:48:09;;;;;;;90.67;46.10;;;-1.10;40.30;;;;;;5015747;28;20233;-88
2024/01/10 02:50:34;;;;;;;93.00;45.70;;;-1.10;40.20;;;;;;5014264;28;20237;-89
2024/01/10 02:53:00;;;;;;;90.73;44.33;;;-1.00;40.30;;;;;;4997822;28;20215;-88
2024/01/10 02:55:26;;;;;;;91.00;45.23;;;-1.00;40.20;;;;;;4998565;28;20245;-89
2024/01/10 02:57:51;;;;;;;90.70;45.20;;;-1.00;40.20;;;;;;4997624;28;20270;-89
2024/01/10 03:00:17;;;;;;;91.70;45.33;;;-1.10;40.10;;;;;;4997353;28;20176;-89
2024/01/10 03:02:43;;;;;;;92.83;44.33;;;-1.10;40.10;;;;;;4997161;28;20176;-88
2024/01/10 03:05:08;;;;;;;91.90;45.57;;;-1.10;40.20;;;;;;4998105;28;20210;-88
2024/01/10 03:07:34;;;;;;;82.47;45.17;;;-1.10;40.10;;;;;;5013973;28;20238;-89
2024/01/10 03:09:59;;;;;;;89.30;44.23;;;-1.10;40.10;;;;;;4997776;28;20184;-88
2024/01/10 03:12:25;;;;;;;91.63;46.67;;;-1.00;40.20;;;;;;4997589;28;20198;-87
2024/01/10 03:14:51;;;;;;;92.70;45.87;;;-1.10;40.10;;;;;;4997157;28;20198;-88
2024/01/10 03:17:16;;;;;;;92.70;46.57;;;-1.10;40.00;;;;;;4997807;28;20183;-89
2024/01/10 03:19:45;;;;;;;95.50;46.10;;;-1.20;39.90;;;;;;5001623;28;20194;-88
2024/01/10 03:22:13;;;;;;;89.27;44.47;;;-1.20;40.00;;;;;;5019373;28;20187;-88
2024/01/10 03:24:39;;;;;;;81.97;44.67;;;-1.20;40.00;;;;;;5012525;28;20179;-88
2024/01/10 03:27:05;;;;;;;93.87;46.27;;;-1.20;40.10;;;;;;5009347;28;20246;-89
2024/01/10 03:29:30;;;;;;;88.87;45.37;;;-1.20;40.10;;;;;;4997661;28;20647;-88
2024/01/10 03:31:56;;;;;;;92.53;47.00;;;-1.20;40.50;;;;;;5003083;28;20189;-89
2024/01/10 03:34:21;;;;;;;88.57;45.00;;;-1.30;39.90;;;;;;5004393;28;20186;-88
2024/01/10 03:36:47;;;;;;;88.97;43.10;;;-1.30;39.90;;;;;;5022910;28;20931;-88
2024/01/10 03:39:12;;;;;;;86.00;43.93;;;-1.30;40.10;;;;;;4993843;28;20247;-88
2024/01/10 03:41:38;;;;;;;91.33;44.90;;;-1.30;40.10;;;;;;5000373;28;20182;-88
2024/01/10 03:44:04;;;;;;;91.50;43.70;;;-1.40;39.90;;;;;;4994279;28;20230;-89
2024/01/10 03:46:29;;;;;;;88.77;43.70;;;-1.40;39.80;;;;;;4997218;28;20226;-89
2024/01/10 03:48:55;;;;;;;89.77;43.13;;;-1.40;40.00;;;;;;4992947;28;20211;-88
2024/01/10 03:51:21;;;;;;;84.53;42.87;;;-1.40;40.00;;;;;;5011870;28;20653;-88
2024/01/10 03:53:48;;;;;;;90.60;43.70;;;-1.40;40.00;;;;;;4996568;28;20184;-88
2024/01/10 03:56:14;;;;;;;85.57;43.23;;;-1.40;40.40;;;;;;5002163;28;20183;-88
2024/01/10 03:58:40;;;;;;;79.43;40.33;;;-1.40;39.80;;;;;;4995964;28;20187;-88
2024/01/10 04:01:07;;;;;;;83.27;43.43;;;-1.40;40.40;;;;;;4984551;28;20234;-89
2024/01/10 04:03:33;;;;;;;83.07;40.87;;;-1.30;40.00;;;;;;5002540;28;20202;-88
2024/01/10 04:05:59;;;;;;;89.73;42.63;;;-1.30;39.80;;;;;;5028534;28;20206;-88
2024/01/10 04:08:24;;;;;;;89.67;42.33;;;-1.40;39.50;;;;;;4995759;28;20180;-88
2024/01/10 04:10:50;;;;;;;83.43;42.27;;;-1.40;39.40;;;;;;4988706;28;20206;-87
2024/01/10 04:13:15;;;;;;;78.03;41.23;;;-1.40;39.60;;;;;;5018325;28;20186;-88
2024/01/10 04:15:41;;;;;;;89.67;41.87;;;-1.40;39.70;;;;;;4988732;28;20197;-86
2024/01/10 04:18:07;;;;;;;83.73;42.03;;;-1.40;39.60;;;;;;5013770;28;20194;-87
2024/01/10 04:20:32;;;;;;;87.67;43.37;;;-1.40;39.50;;;;;;5007075;28;20182;-89
2024/01/10 04:22:58;;;;;;;80.77;40.50;;;-1.40;39.60;;;;;;5017067;28;20955;-90
2024/01/10 04:25:24;;;;;;;80.37;40.33;;;-1.40;39.50;;;;;;5031301;28;20210;-88
2024/01/10 04:27:52;;;;;;;77.60;42.03;;;-1.40;39.40;;;;;;4998691;28;20217;-87
2024/01/10 04:30:18;;;;;;;89.67;43.97;;;-1.50;39.30;;;;;;5006787;28;20686;-89
2024/01/10 04:32:43;;;;;;;83.20;41.10;;;-1.50;39.20;;;;;;5019478;28;20175;-88
2024/01/10 04:35:09;;;;;;;84.97;42.33;;;-1.50;39.30;;;;;;4995182;28;20188;-89
2024/01/10 04:40:57;;;;;;;79.03;41.33;;;-1.60;39.40;;;;;;5021135;28;20186;-90
2024/01/10 04:43:22;;;;;;;84.53;43.73;;;-1.60;39.60;;;;;;5004276;28;20188;-88
2024/01/10 04:45:48;;;;;;;89.17;42.73;;;-1.60;39.70;;;;;;4993243;28;20729;-88
2024/01/10 04:48:13;;;;;;;79.23;40.30;;;-1.50;39.80;;;;;;5003898;28;20195;-89
2024/01/10 04:50:39;;;;;;;89.87;41.67;;;-1.50;39.80;;;;;;4997190;28;20190;-88
2024/01/10 04:53:05;;;;;;;86.37;42.23;;;-1.50;39.70;;;;;;5019992;28;20232;-90
2024/01/10 04:55:31;;;;;;;88.27;44.07;;;-1.50;39.60;;;;;;5017714;28;20191;-88
2024/01/10 04:57:56;;;;;;;86.63;42.50;;;-1.50;39.70;;;;;;5013638;28;20270;-89
2024/01/10 05:00:22;;;;;;;91.10;41.50;;;-1.50;39.70;;;;;;4994883;28;20214;-88
2024/01/10 05:02:47;;;;;;;88.87;45.50;;;-1.50;39.80;;;;;;4995658;28;20206;-89
2024/01/10 05:05:13;;;;;;;96.07;44.90;;;-1.50;39.80;;;;;;4994990;28;20253;-89
2024/01/10 05:07:38;;;;;;;90.57;45.20;;;-1.50;39.90;;;;;;5011780;28;20232;-89
2024/01/10 05:10:05;;;;;;;93.60;45.53;;;-1.40;40.00;;;;;;4999147;28;20180;-88
2024/01/10 05:12:30;;;;;;;95.60;47.03;;;-1.30;40.10;;;;;;5006666;28;20198;-89
2024/01/10 05:14:56;;;;;;;84.57;44.87;;;-1.30;40.10;;;;;;4994371;28;20185;-88
2024/01/10 05:17:21;;;;;;;86.80;44.37;;;-1.30;40.00;;;;;;5013995;28;20188;-89
2024/01/10 05:19:47;;;;;;;90.57;45.80;;;-1.30;39.70;;;;;;4997364;28;21110;-88
2024/01/10 05:22:13;;;;;;;86.20;42.47;;;-1.40;39.60;;;;;;5012645;28;20182;-89
2024/01/10 05:24:38;;;;;;;94.37;45.30;;;-1.30;39.80;;;;;;4992985;28;20556;-88
2024/01/10 05:27:04;;;;;;;94.50;47.60;;;-1.30;39.80;;;;;;5003176;28;20347;-89
2024/01/10 05:29:30;;;;;;;87.83;45.83;;;-1.30;39.80;;;;;;4996374;28;20655;-88
2024/01/10 05:31:55;;;;;;;90.77;46.03;;;-1.30;39.80;;;;;;5004452;28;20651;-89
2024/01/10 05:34:21;;;;;;;89.83;45.40;;;-1.30;39.70;;;;;;5019223;28;20184;-88
2024/01/10 05:36:47;;;;;;;93.17;45.77;;;-1.30;39.60;;;;;;4995491;28;20193;-88
2024/01/10 05:39:15;;;;;;;90.03;44.47;;;-1.40;39.50;;;;;;4992323;28;20186;-88
2024/01/10 05:41:43;;;;;;;90.70;43.33;;;-1.40;39.50;;;;;;5012101;28;20632;-87
2024/01/10 05:44:09;;;;;;;91.37;44.57;;;-1.40;39.50;;;;;;4998694;28;20255;-89
2024/01/10 05:46:34;;;;;;;84.53;44.07;;;-1.50;39.40;;;;;;4993556;28;20211;-90
2024/01/10 05:49:00;;;;;;;80.93;43.60;;;-1.50;39.50;;;;;;4989184;28;20219;-87
2024/01/10 05:51:26;;;;;;;86.77;42.93;;;-1.40;39.70;;;;;;4995220;28;20194;-88
2024/01/10 05:53:51;;;;;;;80.00;41.97;;;-1.40;39.60;;;;;;4998873;28;20179;-88
2024/01/10 05:56:17;;;;;;;81.73;42.67;;;-1.50;39.40;;;;;;4981508;28;20644;-88
2024/01/10 05:58:42;;;;;;;82.57;41.03;;;-1.50;39.50;;;;;;4994092;28;20191;-90
2024/01/10 06:01:09;;;;;;;85.23;43.03;;;-1.50;39.40;;;;;;5008988;28;20183;-89
2024/01/10 06:03:35;;;;;;;86.33;43.60;;;-1.50;39.60;;;;;;5000778;28;20187;-90
2024/01/10 06:06:01;;;;;;;83.97;42.07;;;-1.50;39.50;;;;;;5009800;28;20229;-88
2024/01/10 06:08:28;;;;;;;88.77;42.77;;;-1.50;39.50;;;;;;4993991;28;20442;-87
2024/01/10 06:10:54;;;;;;;86.83;43.23;;;-1.50;39.60;;;;;;4993848;28;20238;-89
2024/01/10 06:13:19;;;;;;;88.03;42.27;;;-1.50;39.50;;;;;;5011887;28;20582;-90
2024/01/10 06:15:45;;;;;;;85.37;43.60;;;-1.50;39.40;;;;;;4993694;28;20234;-88
2024/01/10 06:18:11;;;;;;;82.60;42.20;;;-1.60;39.40;;;;;;4993977;28;20215;-88
2024/01/10 06:20:39;;;;;;;84.97;43.17;;;-1.50;39.60;;;;;;5010044;28;20198;-89
2024/01/10 06:23:04;;;;;;;89.10;44.60;;;-1.50;39.60;;;;;;5012080;28;20311;-90
2024/01/10 06:25:30;;;;;;;85.23;43.77;;;-1.50;39.50;;;;;;4991350;28;20318;-88
2024/01/10 06:27:56;;;;;;;88.57;43.53;;;-1.60;39.40;;;;;;4992829;28;20187;-90
2024/01/10 06:30:21;;;;;;;89.30;44.50;;;-1.60;39.50;;;;;;4993862;28;20274;-90
2024/01/10 06:32:47;;;;;;;84.20;42.60;;;-1.60;39.50;;;;;;5003209;28;20180;-90
2024/01/10 06:35:13;;;;;;;80.83;41.53;;;-1.60;39.50;;;;;;4991596;28;20210;-88
2024/01/10 06:37:38;;;;;;;98.83;45.80;;;-1.70;39.40;;;;;;4994160;28;20594;-88
2024/01/10 06:40:05;;;;;;;84.37;42.30;;;-1.70;40.20;;;;;;5003568;28;20187;-89
2024/01/10 06:42:31;;;;;;;85.73;43.97;;;-1.60;39.80;;;;;;4995562;28;20298;-90
2024/01/10 06:44:56;;;;;;;90.67;44.77;;;-1.60;39.80;;;;;;5000990;28;20318;-88
2024/01/10 06:47:22;;;;;;;91.93;42.73;;;-1.70;39.60;;;;;;4998896;28;20202;-87
2024/01/10 06:49:48;;;;;;;83.67;43.00;;;-1.70;39.70;;;;;;5003631;28;20183;-88
2024/01/10 06:52:13;;;;;;;89.47;43.60;;;-1.70;39.50;;;;;;4991238;28;20183;-88
2024/01/10 06:54:39;;;;;;;90.07;42.40;;;-1.70;39.60;;;;;;5007975;28;20202;-87
2024/01/10 06:57:05;;;;;;;82.67;41.27;;;-1.70;39.80;;;;;;4988652;28;20183;-90
2024/01/10 06:59:30;;;;;;;88.23;42.70;;;-1.70;39.70;;;;;;4997316;28;20270;-88
2024/01/10 07:01:56;;;;;;;81.73;40.73;;;-1.80;39.40;;;;;;4988722;28;20202;-90
2024/01/10 07:04:23;;;;;;;87.43;44.03;;;-1.80;39.60;;;;;;5005402;28;20195;-89
2024/01/10 07:06:49;;;;;;;78.33;41.13;;;-1.80;39.50;;;;;;5008637;28;20202;-88
2024/01/10 07:09:19;;;;;;;89.97;43.20;;;-1.80;39.60;;;;;;4994105;28;20543;-88
2024/01/10 07:11:48;;;;;;;77.37;42.13;;;-1.90;39.60;;;;;;4993168;28;20186;-88
2024/01/10 07:14:15;;;;;;;84.33;42.47;;;-1.90;39.70;;;;;;4990598;28;20529;-85
2024/01/10 07:16:42;;;;;;;86.03;41.10;;;-1.90;39.70;;;;;;4990868;28;20225;-86
2024/01/10 07:19:13;;;;;;;88.23;41.77;;;-1.90;39.80;;;;;;4991386;28;20183;-86
2024/01/10 07:21:42;;;;;;;76.07;40.60;;;-1.80;39.80;;;;;;4999448;28;20187;-87
2024/01/10 07:24:09;;;;;;;86.37;41.43;;;-1.80;39.80;;;;;;4992596;28;20183;-86
2024/01/10 07:26:35;;;;;;;87.97;43.20;;;-1.80;40.30;;;;;;5004261;28;20214;-87
2024/01/10 07:29:02;;;;;;;81.37;41.77;;;-1.80;39.70;;;;;;5003191;28;20197;-85
2024/01/10 07:31:31;;;;;;;81.03;40.57;;;-1.70;39.80;;;;;;5001036;28;20924;-85
2024/01/10 07:33:57;;;;;;;81.93;42.10;;;-1.70;39.90;;;;;;4989589;28;20187;-85
2024/01/10 07:36:29;;;;;;;82.43;41.00;;;-1.60;39.90;;;;;;4992952;28;20864;-85
2024/01/10 07:38:57;;;;;;;89.33;43.03;;;-1.70;39.70;;;;;;4988038;28;20191;-85
2024/01/10 07:41:23;;;;;;;79.93;38.80;;;-1.70;39.70;;;;;;4989654;28;20273;-85
2024/01/10 07:43:48;;;;;;;75.97;39.13;;;-1.80;39.60;;;;;;5007803;28;20183;-87
2024/01/10 07:46:14;;;;;;;79.80;41.53;;;-1.70;39.80;;;;;;4989890;28;20212;-86
2024/01/10 07:48:40;;;;;;;79.50;40.40;;;-1.50;40.10;;;;;;4989503;28;20214;-86
2024/01/10 07:51:06;;;;;;;81.17;40.23;;;-1.60;39.80;;;;;;5004059;28;20274;-86
2024/01/10 07:53:32;;;;;;;79.40;41.20;;;-1.60;39.90;;;;;;5007246;28;20187;-85
2024/01/10 07:55:57;;;;;;;82.47;40.53;;;-1.60;39.70;;;;;;5006352;28;20210;-86
2024/01/10 07:58:23;;;;;;;74.13;40.07;;;-1.50;39.80;;;;;;5022217;28;20329;-86
2024/01/10 08:00:49;;;;;;;72.33;39.30;;;-1.50;39.80;;;;;;5000555;28;20740;-87
2024/01/10 08:03:15;;;;;;;78.97;40.57;;;-1.50;39.90;;;;;;5003054;28;20194;-87
2024/01/10 08:05:40;;;;;;;85.13;40.00;;;-1.40;39.80;;;;;;5007794;28;20284;-87
2024/01/10 08:08:06;;;;;;;86.33;40.93;;;-1.30;39.70;;;;;;5008731;28;20282;-85
2024/01/10 08:10:32;;;;;;;73.87;38.17;;;-1.40;39.50;;;;;;5005447;28;20171;-85
2024/01/10 08:12:58;;;;;;;80.00;40.97;;;-1.50;39.50;;;;;;5010912;28;20183;-87
2024/01/10 08:15:23;;;;;;;80.03;40.37;;;-1.50;39.60;;;;;;5009718;28;20203;-87
2024/01/10 08:17:49;;;;;;;83.30;41.57;;;-1.40;39.60;;;;;;5010157;28;20242;-86
2024/01/10 08:20:19;;;;;;;84.97;41.07;;;-1.40;39.60;;;;;;4990525;28;20670;-87
2024/01/10 08:22:45;;;;;;;84.67;41.57;;;-1.40;39.60;;;;;;5008153;28;20195;-87
2024/01/10 08:25:10;;;;;;;76.10;40.47;;;-1.40;39.60;;;;;;4992528;28;20202;-87
2024/01/10 08:27:36;;;;;;;77.20;41.10;;;-1.40;39.70;;;;;;4997564;28;20195;-86
2024/01/10 08:30:04;;;;;;;84.03;41.47;;;-1.50;39.50;;;;;;5008743;28;20195;-87
2024/01/10 08:32:31;;;;;;;81.77;41.57;;;-1.50;39.50;;;;;;4992802;28;20195;-87
2024/01/10 08:34:57;;;;;;;80.70;41.50;;;-1.50;39.70;;;;;;5009863;28;20191;-86
2024/01/10 08:37:22;;;;;;;75.07;41.53;;;-1.50;40.40;;;;;;4996513;28;20225;-87
2024/01/10 08:39:50;;;;;;;80.77;41.43;;;-1.50;39.90;;;;;;5006801;28;20195;-87
2024/01/10 08:42:15;;;;;;;80.77;41.63;;;-1.50;39.90;;;;;;5006565;28;20179;-87
2024/01/10 08:44:41;;;;;;;79.80;41.40;;;-1.50;40.00;;;;;;5007936;28;20286;-85
2024/01/10 08:47:07;;;;;;;82.80;42.07;;;-1.50;40.00;;;;;;4991470;28;20917;-86
2024/01/10 08:49:33;;;;;;;84.30;42.00;;;-1.50;40.10;;;;;;4994033;28;20545;-87
2024/01/10 08:51:58;;;;;;;84.07;43.00;;;-1.40;40.30;;;;;;5007731;28;20179;-86
2024/01/10 08:54:25;;;;;;;78.63;43.13;;;-1.40;40.30;;;;;;4993095;28;20191;-86
2024/01/10 08:56:50;;;;;;;87.00;43.57;;;-1.40;40.40;;;;;;4992224;28;20290;-87
2024/01/10 08:59:16;;;;;;;92.20;43.93;;;-1.30;40.50;;;;;;5008907;28;20305;-86
2024/01/10 09:01:42;;;;;;;84.77;43.73;;;-1.30;40.40;;;;;;4992776;28;20179;-87
2024/01/10 09:04:08;;;;;;;81.87;43.53;;;-1.20;40.40;;;;;;5008664;28;20262;-86
2024/01/10 09:06:34;;;;;;;86.00;42.90;;;-1.10;40.70;;;;;;4993483;28;20287;-87
2024/01/10 09:09:01;;;;;;;84.23;41.97;;;-1.10;40.60;;;;;;4991601;28;20217;-86
2024/01/10 09:11:26;;;;;;;80.23;41.27;;;-1.10;40.60;;;;;;5005173;28;20190;-87
2024/01/10 09:13:52;;;;;;;81.83;42.80;;;-1.10;40.60;;;;;;4995386;28;20202;-86
2024/01/10 09:16:20;;;;;;;83.03;41.20;;;-1.00;40.70;;;;;;4991477;28;20648;-86
2024/01/10 09:18:46;;;;;;;89.67;41.67;;;-1.00;40.70;;;;;;4997984;28;20194;-87
2024/01/10 09:21:12;;;;;;;82.60;43.87;;;-0.90;40.70;;;;;;4991704;28;20184;-87
2024/01/10 09:23:37;;;;;;;85.10;43.13;;;-0.90;40.80;;;;;;5011217;28;20182;-87
2024/01/10 09:26:03;;;;;;;76.53;42.30;;;-0.80;40.90;;;;;;4991157;28;20222;-88
2024/01/10 09:28:29;;;;;;;88.03;45.27;;;-0.80;40.80;;;;;;4987858;28;20546;-87
2024/01/10 09:30:54;;;;;;;84.10;44.47;;;-0.80;40.80;;;;;;4991241;28;20172;-87
2024/01/10 09:33:22;;;;;;;87.60;44.07;;;-0.80;40.70;;;;;;4992381;28;20241;-87
2024/01/10 09:35:48;;;;;;;87.63;44.90;;;-0.70;40.80;;;;;;5009918;28;20196;-88
2024/01/10 09:38:13;;;;;;;82.37;43.50;;;-0.70;40.80;;;;;;4992800;28;20193;-87
2024/01/10 09:40:39;;;;;;;97.27;47.73;;;-0.80;40.80;;;;;;4994415;28;20629;-87
2024/01/10 09:43:07;;;;;;;88.10;47.13;;;-0.70;41.00;;;;;;4999634;28;20183;-86
2024/01/10 09:45:35;;;;;;;85.60;45.20;;;-0.60;41.20;;;;;;4991503;28;20226;-87
2024/01/10 09:48:01;;;;;;;91.07;46.17;;;-0.50;41.20;;;;;;4996408;28;20179;-88
2024/01/10 09:50:27;;;;;;;87.80;46.07;;;-0.50;41.10;;;;;;4997552;28;20281;-87
2024/01/10 09:53:08;;;;;;;92.17;48.00;;;-0.50;41.00;;;;;;4994672;28;20200;-87
2024/01/10 09:55:36;;;;;;;86.77;46.10;;;-0.50;41.00;;;;;;4991629;28;20521;-87
2024/01/10 09:58:11;;;;;;;86.17;46.53;;;-0.50;41.00;;;;;;4991802;28;20176;-87
2024/01/10 10:00:37;;;;;;;88.83;47.03;;;-0.50;41.10;;;;;;4993697;28;20196;-87
2024/01/10 10:03:12;;;;;;;93.50;48.00;;;-0.50;41.30;;;;;;5009955;28;20544;-87
2024/01/10 10:05:38;;;;;;;94.73;49.80;;;-0.40;41.40;;;;;;4992710;28;20301;-87
2024/01/10 10:08:07;;;;;;;92.73;49.47;;;-0.40;41.30;;;;;;4993259;28;20255;-88
2024/01/10 10:10:32;;;;;;;93.23;49.07;;;-0.40;41.30;;;;;;5010939;28;20625;-87
2024/01/10 10:12:58;;;;;;;103.03;50.67;;;-0.40;41.30;;;;;;4987974;28;20275;-87
2024/01/10 10:15:27;;;;;;;92.90;49.57;;;-0.40;41.40;;;;;;4993690;28;20197;-87
2024/01/10 10:17:54;;;;;;;97.00;49.13;;;-0.30;41.60;;;;;;4993590;28;20266;-86
2024/01/10 10:20:29;;;;;;;92.93;47.60;;;-0.30;41.50;;;;;;4992187;28;20195;-86
2024/01/10 10:23:12;;;;;;;95.80;49.17;;;-0.20;41.60;;;;;;5007421;28;20194;-87
2024/01/10 10:25:43;;;;;;;96.07;50.37;;;-0.30;41.50;;;;;;4991427;28;20286;-87
2024/01/10 10:28:09;;;;;;;101.80;49.53;;;-0.30;41.60;;;;;;4999395;28;20262;-87
2024/01/10 10:30:34;;;;;;;91.77;49.33;;;-0.30;41.60;;;;;;4999287;28;20279;-87
2024/01/10 10:33:02;;;;;;;97.83;52.40;;;-0.40;41.70;;;;;;5002999;28;20254;-87
2024/01/10 10:35:27;;;;;;;110.67;54.63;;;-0.30;41.90;;;;;;4996590;28;20183;-87
2024/01/10 10:37:54;;;;;;;104.67;51.17;;;-0.30;42.00;;;;;;4988212;28;20284;-86
2024/01/10 10:40:20;;;;;;;95.07;49.10;;;-0.20;42.10;;;;;;5011113;28;20189;-87
2024/01/10 10:42:57;;;;;;;97.20;50.03;;;-0.10;42.20;;;;;;5002579;28;20186;-87
2024/01/10 10:45:26;;;;;;;94.97;49.70;;;0.00;42.20;;;;;;5009855;28;20316;-87
2024/01/10 10:47:59;;;;;;;90.63;48.17;;;0.00;42.10;;;;;;4998588;28;20257;-86
2024/01/10 10:50:29;;;;;;;96.30;49.90;;;0.10;42.20;;;;;;4991624;28;20187;-86
2024/01/10 10:52:58;;;;;;;95.30;48.83;;;0.10;42.10;;;;;;5011818;28;20265;-87
2024/01/10 10:55:26;;;;;;;100.70;51.57;;;0.10;42.00;;;;;;4994688;28;20543;-87
2024/01/10 10:57:53;;;;;;;91.73;49.53;;;0.20;42.10;;;;;;5013568;28;20186;-86
2024/01/10 11:00:21;;;;;;;92.27;48.00;;;0.20;42.00;;;;;;4994899;28;20230;-86
2024/01/10 11:02:47;;;;;;;91.73;47.97;;;0.20;42.00;;;;;;4995441;28;20186;-86
2024/01/10 11:05:13;;;;;;;91.43;48.53;;;0.20;42.10;;;;;;4992569;28;20274;-87
2024/01/10 11:07:49;;;;;;;89.23;47.73;;;0.30;42.30;;;;;;5013059;28;20275;-87
2024/01/10 11:10:24;;;;;;;94.23;50.53;;;0.30;42.10;;;;;;5003691;28;20179;-87
2024/01/10 11:13:17;;;;;;;86.50;47.60;;;0.40;42.20;;;;;;4994684;28;20218;-86
2024/01/10 11:15:54;;;;;;;90.20;48.40;;;0.30;42.20;;;;;;5002776;28;20186;-86
2024/01/10 11:18:57;;;;;;;94.27;49.40;;;0.30;42.20;;;;;;4992458;28;20175;-87
2024/01/10 11:21:24;;;;;;;87.27;47.63;;;0.40;42.30;;;;;;5007100;28;20584;-87
2024/01/10 11:23:53;;;;;;;92.33;48.10;;;0.30;42.30;;;;;;5024522;28;20201;-86
2024/01/10 11:26:20;;;;;;;87.63;47.07;;;0.40;42.50;;;;;;5005775;28;20220;-87
2024/01/10 11:28:46;;;;;;;81.63;47.60;;;0.40;42.50;;;;;;4993799;28;20188;-86
2024/01/10 11:31:15;;;;;;;91.10;46.73;;;0.50;42.50;;;;;;4995042;28;20184;-87
2024/01/10 11:33:42;;;;;;;88.37;46.33;;;0.40;42.60;;;;;;4994837;28;20568;-86
2024/01/10 11:36:09;;;;;;;86.03;45.63;;;0.50;42.70;;;;;;4997975;28;20181;-86
2024/01/10 11:38:40;;;;;;;88.40;46.33;;;0.40;42.60;;;;;;5011288;28;20629;-86
2024/01/10 11:41:08;;;;;;;86.57;46.00;;;0.40;42.70;;;;;;5003646;28;20196;-87
2024/01/10 11:43:34;;;;;;;89.43;47.63;;;0.40;42.80;;;;;;4998530;28;20184;-86
2024/01/10 11:46:04;;;;;;;82.40;44.50;;;0.40;42.80;;;;;;5007676;28;20254;-87
2024/01/10 11:48:31;;;;;;;85.83;45.03;;;0.40;42.80;;;;;;4990357;28;20183;-85
2024/01/10 11:50:58;;;;;;;85.07;45.60;;;0.50;42.90;;;;;;4988343;28;20188;-85
2024/01/10 11:53:42;;;;;;;90.37;46.97;;;0.50;42.80;;;;;;5009817;28;20244;-86
2024/01/10 11:56:18;;;;;;;89.30;45.90;;;0.60;42.90;;;;;;4991765;28;20270;-87
2024/01/10 11:59:04;;;;;;;82.03;44.87;;;0.70;42.90;;;;;;4985660;28;20888;-86
2024/01/10 12:01:29;;;;;;;81.23;45.23;;;0.70;42.70;;;;;;4992851;28;20749;-87
2024/01/10 12:03:56;;;;;;;85.27;46.33;;;0.60;42.70;;;;;;4994549;28;20230;-87
2024/01/10 12:06:22;;;;;;;83.37;45.17;;;0.60;42.60;;;;;;4993816;28;20267;-87
2024/01/10 12:08:49;;;;;;;85.50;44.33;;;0.70;42.80;;;;;;4992407;28;20189;-86
2024/01/10 12:11:15;;;;;;;85.43;45.67;;;0.80;42.90;;;;;;4998115;28;20182;-86
2024/01/10 12:13:41;;;;;;;80.10;43.80;;;0.80;42.70;;;;;;4993854;28;20192;-87
2024/01/10 12:16:07;;;;;;;84.20;45.57;;;0.80;42.40;;;;;;5013888;28;20269;-86
2024/01/10 12:18:33;;;;;;;81.50;42.73;;;0.70;42.30;;;;;;4997647;28;20271;-87
2024/01/10 12:20:59;;;;;;;78.00;44.03;;;0.70;42.40;;;;;;4990261;28;20195;-88
2024/01/10 12:23:30;;;;;;;80.17;44.13;;;0.70;42.50;;;;;;4993418;28;20188;-86
2024/01/10 12:25:56;;;;;;;83.13;45.37;;;0.80;42.60;;;;;;5007396;28;20251;-88
2024/01/10 12:28:21;;;;;;;91.53;46.97;;;0.90;42.70;;;;;;4995151;28;20187;-88
2024/01/10 12:30:48;;;;;;;83.03;44.83;;;0.90;42.40;;;;;;5004157;28;20204;-87
2024/01/10 12:33:13;;;;;;;85.17;45.47;;;0.90;42.20;;;;;;4997034;28;20174;-88